Time;durP1;ratioP1;P1;durP2;ratioP2;P2;SDS_P1;SDS_P2;PMS_P1;PMS_P2;Temp;Humidity;BMP_temperature;BMP_pressure;BME280_temperature;BME280_humidity;BME280_pressure;Samples;Min_cycle;Max_cycle;Signal;HPM_P1;HPM_P2
2022/01/08 00:01:24;;;;;;;8.48;5.75;;;;;;;4.39;71.75;95251.44;5009708;28;20465;-55
2022/01/08 00:03:51;;;;;;;9.60;5.93;;;;;;;3.61;72.08;95127.34;5009478;28;20486;-58
2022/01/08 00:06:17;;;;;;;10.15;6.30;;;;;;;4.44;72.14;95256.34;5008942;28;20387;-58
2022/01/08 00:08:42;;;;;;;10.98;7.05;;;;;;;4.33;72.44;95249.09;5009576;28;20030;-64
2022/01/08 00:11:10;;;;;;;10.38;5.80;;;;;;;4.48;72.13;95257.09;5009433;28;20064;-59
2022/01/08 00:13:37;;;;;;;8.10;5.47;;;;;;;4.25;71.26;95210.22;5009143;28;20033;-60
2022/01/08 00:16:03;;;;;;;10.07;6.40;;;;;;;4.52;71.35;95256.91;5009331;28;20029;-57
2022/01/08 00:18:28;;;;;;;10.50;6.40;;;;;;;4.46;72.04;95249.50;5008997;28;20509;-59
2022/01/08 00:20:54;;;;;;;8.07;5.65;;;;;;;3.77;71.67;95152.31;5009364;28;20026;-57
2022/01/08 00:23:19;;;;;;;8.57;6.10;;;;;;;4.46;71.47;95243.53;5007849;28;20038;-58
2022/01/08 00:25:45;;;;;;;9.23;5.63;;;;;;;4.28;71.63;95220.31;5040543;28;20030;-61
2022/01/08 00:28:10;;;;;;;7.85;5.90;;;;;;;4.48;71.65;95247.72;5009198;28;20481;-60
2022/01/08 00:30:36;;;;;;;9.32;5.55;;;;;;;4.46;71.54;95244.38;5008877;28;20061;-59
2022/01/08 00:33:02;;;;;;;8.10;5.50;;;;;;;4.42;71.94;95227.50;5009184;28;20040;-57
2022/01/08 00:35:28;;;;;;;8.82;5.05;;;;;;;4.19;71.74;95207.88;5040616;28;20479;-60
2022/01/08 00:37:53;;;;;;;9.23;5.47;;;;;;;4.10;72.34;95215.84;5008906;28;20026;-60
2022/01/08 00:40:19;;;;;;;8.18;5.10;;;;;;;3.98;73.34;95204.34;5008995;28;20028;-62
2022/01/08 00:42:44;;;;;;;7.68;5.70;;;;;;;4.19;72.39;95224.00;5008717;28;20103;-60
2022/01/08 00:45:10;;;;;;;6.88;4.70;;;;;;;4.19;72.50;95225.75;5008997;28;20022;-63
2022/01/08 00:47:36;;;;;;;9.32;5.28;;;;;;;4.13;72.79;95223.41;5009154;28;20028;-59
2022/01/08 00:50:04;;;;;;;9.00;5.88;;;;;;;3.91;73.10;95208.81;5008881;28;20532;-64
2022/01/08 00:52:30;;;;;;;9.32;6.18;;;;;;;4.03;73.57;95220.31;5008733;28;20053;-61
2022/01/08 00:54:55;;;;;;;10.98;5.80;;;;;;;4.01;73.68;95234.88;5008364;28;20734;-58
2022/01/08 00:57:21;;;;;;;9.00;5.32;;;;;;;3.96;73.91;95235.00;5008458;28;20080;-62
2022/01/08 00:59:46;;;;;;;8.10;5.30;;;;;;;3.92;74.13;95222.41;5008594;28;20121;-60
2022/01/08 01:02:12;;;;;;;7.20;4.82;;;;;;;3.75;73.92;95200.84;5008456;28;20030;-59
2022/01/08 01:04:37;;;;;;;7.55;5.53;;;;;;;3.91;74.07;95224.13;5008598;28;20026;-60
2022/01/08 01:07:03;;;;;;;7.28;5.10;;;;;;;3.85;74.52;95225.19;5008222;28;20367;-56
2022/01/08 01:09:28;;;;;;;7.78;5.07;;;;;;;3.82;74.54;95226.97;5008503;28;20075;-61
2022/01/08 01:11:57;;;;;;;7.68;4.70;;;;;;;3.79;74.50;95222.00;5008650;28;20032;-60
2022/01/08 01:14:26;;;;;;;6.60;4.45;;;;;;;3.78;74.97;95217.78;5008457;28;20506;-58
2022/01/08 01:16:52;;;;;;;6.80;4.80;;;;;;;3.76;74.78;95214.44;5008409;28;20409;-63
2022/01/08 01:19:19;;;;;;;7.70;5.13;;;;;;;3.59;75.50;95192.03;5008260;28;20433;-57
2022/01/08 01:21:45;;;;;;;7.43;4.63;;;;;;;3.73;75.69;95202.63;5008474;28;20417;-58
2022/01/08 01:24:16;;;;;;;6.55;4.70;;;;;;;3.72;75.05;95203.50;5008332;28;20030;-58
2022/01/08 01:26:56;;;;;;;7.55;4.88;;;;;;;3.68;75.19;95195.13;5007722;28;20036;-62
2022/01/08 01:48:24;;;;;;;7.45;5.00;;;;;;;3.78;74.24;95147.19;4982137;28;21255;-59
2022/01/08 01:50:49;;;;;;;5.25;3.85;;;;;;;3.91;74.33;95172.28;4983534;28;20043;-58
2022/01/08 01:53:15;;;;;;;6.28;4.07;;;;;;;4.07;74.02;95173.41;4985252;28;20041;-60
2022/01/08 01:55:41;;;;;;;6.35;3.53;;;;;;;4.11;73.32;95169.84;4985758;28;20133;-60
2022/01/08 01:58:07;;;;;;;6.82;4.47;;;;;;;4.11;73.18;95169.03;4985421;28;20055;-58
2022/01/08 02:00:35;;;;;;;6.22;4.10;;;;;;;4.07;73.52;95170.00;4985541;28;20093;-60
2022/01/08 02:03:01;;;;;;;5.72;3.63;;;;;;;4.07;73.54;95162.34;4985852;28;20177;-62
2022/01/08 02:05:27;;;;;;;9.68;5.78;;;;;;;3.70;74.09;95126.19;4985020;28;20054;-60
2022/01/08 02:07:55;;;;;;;8.07;4.95;;;;;;;3.69;74.60;95134.75;4985708;28;20154;-59
2022/01/08 02:10:24;;;;;;;6.97;4.30;;;;;;;3.86;74.06;95165.59;4985394;28;20129;-58
2022/01/08 02:12:49;;;;;;;6.88;3.90;;;;;;;3.75;74.11;95139.63;4947397;28;20051;-59
2022/01/08 02:15:15;;;;;;;5.88;4.20;;;;;;;3.85;74.53;95158.84;4946975;29;20071;-59
2022/01/08 02:17:41;;;;;;;7.55;4.85;;;;;;;3.88;74.75;95159.63;4946743;29;20050;-58
2022/01/08 02:20:08;;;;;;;7.18;5.07;;;;;;;3.71;74.71;95130.44;4947149;28;20047;-59
2022/01/08 02:22:34;;;;;;;7.03;4.57;;;;;;;3.81;74.75;95136.88;4964102;28;20502;-56
2022/01/08 02:25:00;;;;;;;6.20;4.38;;;;;;;3.83;74.84;95137.66;4988139;28;20096;-58
2022/01/08 02:27:25;;;;;;;6.00;4.45;;;;;;;3.77;74.85;95127.69;4988239;28;20018;-60
2022/01/08 02:29:52;;;;;;;8.55;5.30;;;;;;;3.70;75.38;95126.19;4987550;28;20096;-57
2022/01/08 02:32:23;;;;;;;6.93;4.90;;;;;;;3.77;75.37;95126.81;4988258;28;20035;-59
2022/01/08 02:34:48;;;;;;;7.80;5.15;;;;;;;3.75;75.36;95119.22;4988123;28;20038;-58
2022/01/08 02:37:16;;;;;;;6.88;4.40;;;;;;;3.74;75.46;95114.16;4988592;28;20046;-65
2022/01/08 02:39:43;;;;;;;7.45;4.07;;;;;;;3.70;75.37;95112.63;4991624;28;20030;-64
2022/01/08 02:42:13;;;;;;;7.03;4.38;;;;;;;3.75;75.39;95106.47;4990891;28;20034;-56
2022/01/08 02:44:42;;;;;;;6.03;4.60;;;;;;;3.76;75.55;95110.69;4991745;28;20456;-60
2022/01/08 02:47:07;;;;;;;6.25;4.40;;;;;;;3.77;75.31;95099.63;4991559;28;20030;-57
2022/01/08 02:49:34;;;;;;;6.70;4.57;;;;;;;3.69;75.55;95093.94;4991520;28;20034;-62
2022/01/08 02:52:01;;;;;;;7.15;4.47;;;;;;;3.56;75.40;95070.59;4991261;28;20022;-61
2022/01/08 02:54:26;;;;;;;6.82;4.50;;;;;;;3.49;75.54;95062.31;4990760;28;20033;-61
2022/01/08 02:56:52;;;;;;;6.05;4.25;;;;;;;3.76;75.60;95100.50;4991442;28;20051;-59
2022/01/08 02:59:19;;;;;;;7.03;4.50;;;;;;;3.51;75.66;95054.63;4990884;28;20093;-58
2022/01/08 03:01:45;;;;;;;7.57;4.88;;;;;;;3.66;75.12;95066.81;4991256;28;20031;-61
2022/01/08 03:04:11;;;;;;;7.38;4.85;;;;;;;3.79;75.30;95097.00;4991111;28;20031;-66
2022/01/08 03:06:37;;;;;;;6.90;4.22;;;;;;;3.81;75.64;95095.22;4990604;28;20104;-58
2022/01/08 03:09:03;;;;;;;6.40;4.85;;;;;;;3.79;75.17;95086.81;4991096;28;20026;-61
2022/01/08 03:11:29;;;;;;;8.73;4.90;;;;;;;3.88;75.19;95093.28;4990701;28;20053;-57
2022/01/08 03:13:54;;;;;;;7.47;4.80;;;;;;;3.79;74.80;95071.50;4991162;28;20022;-59
2022/01/08 03:16:20;;;;;;;7.18;4.38;;;;;;;3.84;74.97;95067.06;4990703;28;20054;-60
2022/01/08 03:18:47;;;;;;;6.85;4.93;;;;;;;4.04;74.67;95092.69;4990755;28;20038;-59
2022/01/08 03:21:18;;;;;;;6.18;4.35;;;;;;;4.03;73.94;95085.09;4991006;28;20409;-62
2022/01/08 03:23:54;;;;;;;8.23;4.07;;;;;;;4.09;73.90;95097.63;4990806;28;20034;-59
2022/01/08 03:26:23;;;;;;;6.00;3.95;;;;;;;4.02;74.43;95088.53;4990437;28;20057;-64
2022/01/08 03:28:49;;;;;;;6.20;4.53;;;;;;;3.98;74.59;95097.19;4990818;28;20018;-58
2022/01/08 03:31:16;;;;;;;7.18;4.80;;;;;;;3.94;74.97;95090.53;4989819;28;20036;-61
2022/01/08 03:33:42;;;;;;;8.98;5.53;;;;;;;4.02;74.97;95101.28;4990489;28;20054;-58
2022/01/08 03:36:10;;;;;;;5.65;4.30;;;;;;;4.09;74.31;95105.28;4990570;28;20030;-57
2022/01/08 03:38:36;;;;;;;7.13;4.75;;;;;;;4.10;74.43;95099.31;4990424;28;20030;-58
2022/01/08 03:41:02;;;;;;;6.80;4.78;;;;;;;4.04;74.55;95099.50;4990054;28;20026;-60
2022/01/08 03:43:28;;;;;;;6.22;4.20;;;;;;;4.03;75.08;95101.25;4990533;28;20081;-62
2022/01/08 03:45:53;;;;;;;8.07;4.22;;;;;;;4.00;74.63;95091.16;4990466;28;20485;-68
2022/01/08 03:50:46;;;;;;;6.53;4.15;;;;;;;3.92;76.01;95082.06;4990334;28;20038;-59
2022/01/08 03:53:12;;;;;;;6.65;4.20;;;;;;;3.86;75.86;95072.94;4989711;28;20034;-63
2022/01/08 03:55:38;;;;;;;8.30;5.22;;;;;;;3.77;76.30;95068.16;4990499;28;20507;-61
2022/01/08 03:58:04;;;;;;;8.95;5.63;;;;;;;3.68;76.45;95057.41;4989990;28;20167;-59
2022/01/08 04:00:30;;;;;;;8.40;4.93;;;;;;;3.53;76.60;95041.81;4990020;28;20104;-57
2022/01/08 04:02:56;;;;;;;8.93;5.13;;;;;;;3.66;76.50;95058.34;4990227;28;20411;-61
2022/01/08 04:05:21;;;;;;;7.25;4.30;;;;;;;3.62;77.21;95056.78;4989436;28;20030;-63
2022/01/08 04:07:47;;;;;;;8.13;4.50;;;;;;;3.44;77.34;95028.50;4989867;28;20044;-57
2022/01/08 04:10:12;;;;;;;6.72;4.32;;;;;;;3.49;77.38;95041.06;4989885;28;20045;-59
2022/01/08 04:12:52;;;;;;;8.98;5.45;;;;;;;3.56;77.65;95049.34;4990109;28;20030;-60
2022/01/08 04:17:52;;;;;;;6.40;4.07;;;;;;;3.39;78.44;95055.03;4989680;28;20098;-57
2022/01/08 04:20:19;;;;;;;7.13;4.60;;;;;;;3.44;78.24;95064.19;4989386;28;20497;-60
2022/01/08 04:22:47;;;;;;;9.60;4.63;;;;;;;3.38;77.60;95028.72;4989719;28;20026;-56
2022/01/08 04:25:14;;;;;;;6.80;4.90;;;;;;;3.56;77.77;95059.53;4989938;28;20033;-59
2022/01/08 04:27:39;;;;;;;7.22;4.45;;;;;;;3.56;77.74;95062.94;4989654;28;20387;-58
2022/01/08 04:30:05;;;;;;;6.72;4.28;;;;;;;3.39;77.83;95032.09;4989128;28;20041;-58
2022/01/08 04:32:31;;;;;;;6.65;4.45;;;;;;;3.65;77.52;95054.13;4989832;28;20159;-63
2022/01/08 04:34:56;;;;;;;6.15;3.95;;;;;;;3.69;76.95;95053.16;4989765;28;20109;-64
2022/01/08 04:37:22;;;;;;;6.07;3.65;;;;;;;3.77;76.47;95058.81;4989364;28;20422;-58
2022/01/08 04:39:47;;;;;;;5.88;3.95;;;;;;;3.72;76.58;95049.63;4989840;28;20123;-58
2022/01/08 04:42:13;;;;;;;5.97;3.63;;;;;;;3.56;76.66;95019.59;4987522;28;20046;-57
2022/01/08 04:44:38;;;;;;;5.93;3.72;;;;;;;3.85;76.31;95066.16;4989602;28;20029;-58
2022/01/08 04:47:04;;;;;;;5.57;3.15;;;;;;;3.85;76.42;95063.63;4989284;28;20029;-62
2022/01/08 04:49:29;;;;;;;7.70;3.90;;;;;;;3.65;76.57;95036.28;4989397;28;20026;-60
2022/01/08 04:51:56;;;;;;;9.40;3.90;;;;;;;3.85;76.88;95061.06;4989022;28;20509;-59
2022/01/08 04:54:22;;;;;;;6.28;3.70;;;;;;;3.68;76.40;95037.00;4988732;28;20038;-58
2022/01/08 04:56:48;;;;;;;5.80;3.72;;;;;;;3.84;76.59;95055.13;4989106;28;20540;-61
2022/01/08 04:59:13;;;;;;;7.22;3.42;;;;;;;3.75;76.68;95037.59;4987510;28;20062;-56
2022/01/08 05:01:38;;;;;;;5.70;3.67;;;;;;;3.91;76.81;95054.94;5001389;28;20109;-57
2022/01/08 05:04:04;;;;;;;7.80;4.00;;;;;;;3.88;76.71;95052.47;5008816;28;20516;-59
2022/01/08 05:06:30;;;;;;;5.45;3.38;;;;;;;3.88;76.22;95052.47;5008105;28;20029;-61
2022/01/08 05:08:56;;;;;;;7.50;3.58;;;;;;;3.64;76.60;95021.84;5008679;28;20037;-64
2022/01/08 05:11:21;;;;;;;5.45;3.30;;;;;;;3.86;76.57;95052.53;5008629;28;20049;-64
2022/01/08 05:13:47;;;;;;;5.60;3.25;;;;;;;3.83;76.16;95042.44;5008315;28;20026;-59
2022/01/08 05:16:12;;;;;;;5.32;3.33;;;;;;;3.95;75.92;95064.13;5007923;28;20033;-69
2022/01/08 05:18:38;;;;;;;5.75;3.17;;;;;;;3.97;76.21;95062.38;5006802;28;20092;-56
2022/01/08 05:21:25;;;;;;;7.78;4.00;;;;;;;3.80;76.06;95029.78;5008491;28;20701;-58
2022/01/08 05:23:52;;;;;;;5.90;2.97;;;;;;;3.90;75.99;95043.88;5006646;28;20053;-62
2022/01/08 05:26:18;;;;;;;4.82;2.70;;;;;;;3.96;75.39;95046.19;5005006;28;20037;-59
2022/01/08 05:28:44;;;;;;;5.47;3.33;;;;;;;3.91;76.21;95045.53;5005481;28;20030;-64
2022/01/08 05:31:15;;;;;;;6.75;3.05;;;;;;;4.04;75.93;95048.47;5004268;28;20111;-68
2022/01/08 05:33:42;;;;;;;5.97;3.10;;;;;;;4.03;75.69;95046.81;5005325;28;20113;-56
2022/01/08 05:36:07;;;;;;;6.97;3.47;;;;;;;4.02;75.87;95040.06;5004390;28;20066;-62
2022/01/08 05:38:33;;;;;;;4.13;2.65;;;;;;;4.11;75.56;95051.63;5005182;28;20064;-60
2022/01/08 05:40:58;;;;;;;4.40;2.90;;;;;;;4.11;75.11;95041.44;5005227;28;20065;-58
2022/01/08 05:43:24;;;;;;;4.75;2.90;;;;;;;4.12;75.36;95043.91;5003626;28;20117;-62
2022/01/08 05:45:49;;;;;;;15.85;4.22;;;;;;;4.18;75.51;95042.84;5006691;28;20046;-63
2022/01/08 05:48:15;;;;;;;3.97;2.80;;;;;;;4.30;74.82;95049.22;5008192;28;20033;-58
2022/01/08 05:50:40;;;;;;;5.65;3.50;;;;;;;4.34;74.17;95045.66;5005214;28;20042;-60
2022/01/08 05:53:06;;;;;;;6.45;2.90;;;;;;;4.44;73.96;95039.31;5007927;28;20108;-60
2022/01/08 05:55:31;;;;;;;6.13;3.17;;;;;;;4.35;73.67;95009.88;4998813;28;20030;-57
2022/01/08 05:57:57;;;;;;;5.40;3.10;;;;;;;4.55;73.77;95042.28;4988580;28;20057;-60
2022/01/08 06:00:22;;;;;;;5.22;3.13;;;;;;;4.66;73.90;95046.16;4988355;28;20056;-64
2022/01/08 06:02:47;;;;;;;6.90;3.05;;;;;;;4.75;73.36;95046.59;4988750;28;20118;-59
2022/01/08 06:05:13;;;;;;;6.18;3.58;;;;;;;4.77;72.91;95034.63;4987994;28;20023;-59
2022/01/08 06:07:38;;;;;;;4.88;3.20;;;;;;;4.55;72.80;94990.38;4988422;28;20096;-61
2022/01/08 06:10:05;;;;;;;6.07;4.03;;;;;;;4.92;73.31;95033.16;4988348;28;20026;-59
2022/01/08 06:12:30;;;;;;;4.95;2.88;;;;;;;5.00;72.50;95029.44;4991130;28;20113;-60
2022/01/08 06:14:56;;;;;;;6.47;2.90;;;;;;;4.94;71.71;95016.03;4992537;28;20026;-61
2022/01/08 06:17:22;;;;;;;4.15;2.55;;;;;;;4.97;72.31;95032.97;4991754;28;20037;-58
2022/01/08 06:19:47;;;;;;;4.13;2.97;;;;;;;4.72;72.34;95005.00;4992250;28;20211;-58
2022/01/08 06:22:14;;;;;;;4.85;2.70;;;;;;;4.79;72.57;95012.38;4992306;28;20092;-60
2022/01/08 06:24:39;;;;;;;4.60;3.20;;;;;;;4.92;72.31;95034.88;4992404;28;20060;-57
2022/01/08 06:27:05;;;;;;;6.53;2.80;;;;;;;5.03;71.58;95039.56;4992611;28;20022;-59
2022/01/08 06:29:30;;;;;;;4.90;2.67;;;;;;;5.00;72.03;95034.56;4991873;28;20038;-59
2022/01/08 06:31:55;;;;;;;7.68;3.28;;;;;;;5.02;72.62;95027.66;4992047;28;20486;-61
2022/01/08 06:34:21;;;;;;;6.63;2.92;;;;;;;5.04;72.47;95034.38;4991999;28;20410;-66
2022/01/08 06:36:50;;;;;;;5.40;2.65;;;;;;;5.14;72.13;95030.53;4991930;28;20042;-59
2022/01/08 06:39:16;;;;;;;4.70;2.70;;;;;;;4.84;71.83;94985.78;4991949;28;20516;-60
2022/01/08 06:41:42;;;;;;;4.97;3.10;;;;;;;5.15;71.51;95027.09;4991659;28;20041;-62
2022/01/08 06:44:08;;;;;;;4.65;2.85;;;;;;;5.07;72.69;95029.16;4991935;28;20030;-58
2022/01/08 06:46:33;;;;;;;7.35;3.25;;;;;;;5.34;74.41;95024.63;4991492;28;20117;-56
2022/01/08 06:48:59;;;;;;;7.28;3.00;;;;;;;5.53;72.31;95022.09;5006398;28;20121;-62
2022/01/08 06:51:25;;;;;;;5.53;2.63;;;;;;;5.59;70.82;95026.13;5008101;28;20041;-62
2022/01/08 06:53:50;;;;;;;4.03;2.60;;;;;;;5.60;70.86;95016.72;5007152;28;20489;-58
2022/01/08 06:56:17;;;;;;;3.80;2.22;;;;;;;5.26;69.65;94969.56;5007946;28;20038;-63
2022/01/08 06:58:43;;;;;;;4.75;2.58;;;;;;;5.42;70.39;94996.13;5007320;28;20131;-61
2022/01/08 07:01:09;;;;;;;5.32;2.60;;;;;;;5.44;70.52;95016.53;5008022;28;20045;-59
2022/01/08 07:03:34;;;;;;;4.43;2.58;;;;;;;5.38;70.37;95020.19;5007402;28;20030;-60
2022/01/08 07:06:00;;;;;;;3.67;2.30;;;;;;;5.40;70.75;95020.97;5007461;28;20409;-66
2022/01/08 07:08:25;;;;;;;6.00;3.15;;;;;;;5.35;70.85;95007.53;5007080;28;20030;-63
2022/01/08 07:10:51;;;;;;;4.00;2.30;;;;;;;5.52;70.29;95022.16;5007573;28;20425;-62
2022/01/08 07:13:16;;;;;;;4.60;2.60;;;;;;;5.50;70.56;95019.66;5007231;28;20381;-65
2022/01/08 07:15:41;;;;;;;5.22;3.20;;;;;;;5.48;70.88;95018.91;5007356;28;20030;-59
2022/01/08 07:18:07;;;;;;;5.25;2.60;;;;;;;5.42;70.75;95008.09;5007695;28;20104;-61
2022/01/08 07:20:32;;;;;;;4.30;2.70;;;;;;;5.63;70.23;95019.16;5006694;28;20164;-65
2022/01/08 07:22:59;;;;;;;4.70;2.53;;;;;;;5.60;70.11;95021.81;5006670;28;20026;-62
2022/01/08 07:25:25;;;;;;;4.93;2.72;;;;;;;5.45;70.06;94992.63;5001880;28;20025;-66
2022/01/08 07:27:50;;;;;;;4.25;2.40;;;;;;;5.56;69.36;95005.78;5006515;28;20555;-67
2022/01/08 07:30:16;;;;;;;4.65;2.60;;;;;;;5.66;69.69;95016.44;5005367;28;20548;-59
2022/01/08 07:32:50;;;;;;;6.43;3.15;;;;;;;5.63;69.96;95017.41;5006819;28;20548;-69
2022/01/08 07:35:19;;;;;;;4.53;2.90;;;;;;;5.69;69.39;95006.91;5005744;28;20141;-68
2022/01/08 07:37:44;;;;;;;7.03;4.13;;;;;;;5.75;69.09;95015.22;5006327;28;20033;-69
2022/01/08 07:40:12;;;;;;;5.40;3.00;;;;;;;5.62;69.19;94997.00;5005246;28;20040;-62
2022/01/08 07:42:38;;;;;;;5.03;3.67;;;;;;;5.78;69.80;95025.31;5005543;28;20452;-63
2022/01/08 07:45:04;;;;;;;4.63;3.42;;;;;;;5.86;69.42;95015.56;5002747;28;20445;-60
2022/01/08 07:47:30;;;;;;;4.90;2.95;;;;;;;5.87;69.04;95024.88;5005889;28;20030;-60
2022/01/08 07:49:55;;;;;;;6.20;3.38;;;;;;;5.87;69.03;95017.22;5006310;28;20037;-57
2022/01/08 07:52:21;;;;;;;9.85;4.65;;;;;;;5.88;68.66;95006.09;5006917;28;20056;-63
2022/01/08 07:54:47;;;;;;;6.15;3.22;;;;;;;5.74;68.66;94980.28;5006291;28;20056;-59
2022/01/08 07:57:13;;;;;;;9.75;3.08;;;;;;;5.99;68.17;95009.03;5005971;28;20046;-59
2022/01/08 07:59:38;;;;;;;6.78;3.35;;;;;;;6.01;67.93;94996.97;5006736;28;20091;-59
2022/01/08 08:02:04;;;;;;;4.53;2.78;;;;;;;5.19;68.04;94879.53;5006213;28;20044;-62
2022/01/08 08:04:29;;;;;;;5.97;3.40;;;;;;;6.20;67.86;95008.97;5006574;28;20040;-57
2022/01/08 08:06:54;;;;;;;6.72;2.88;;;;;;;6.29;67.27;95013.66;5005905;28;20041;-59
2022/01/08 08:09:20;;;;;;;5.78;2.97;;;;;;;6.29;67.31;95012.81;5006480;28;20029;-59
2022/01/08 08:11:45;;;;;;;4.88;2.95;;;;;;;6.31;67.05;95008.44;5004676;28;20038;-62
2022/01/08 08:14:11;;;;;;;8.45;3.58;;;;;;;6.10;67.39;94976.97;5006324;28;20033;-60
2022/01/08 08:16:36;;;;;;;5.15;2.58;;;;;;;6.25;66.96;94984.78;5004794;28;20103;-58
2022/01/08 08:19:02;;;;;;;4.90;2.60;;;;;;;6.23;66.66;94968.69;5006030;28;20429;-58
2022/01/08 08:21:28;;;;;;;5.32;3.35;;;;;;;6.30;67.01;94997.38;5005842;28;20120;-61
2022/01/08 08:23:54;;;;;;;4.57;2.63;;;;;;;6.42;66.83;95006.22;5006245;28;20109;-60
2022/01/08 08:26:19;;;;;;;5.53;3.55;;;;;;;6.30;66.06;94953.03;5006062;28;20034;-60
2022/01/08 08:28:45;;;;;;;7.70;3.60;;;;;;;6.71;66.04;94997.16;5006070;28;20046;-62
2022/01/08 08:31:11;;;;;;;6.28;3.03;;;;;;;6.69;65.65;94977.63;5005863;28;20049;-59
2022/01/08 08:33:40;;;;;;;6.15;3.55;;;;;;;6.79;65.33;94986.53;5005520;28;20037;-59
2022/01/08 08:36:06;;;;;;;6.05;3.72;;;;;;;6.81;65.39;94979.59;5005962;28;20493;-63
2022/01/08 08:38:32;;;;;;;4.55;2.30;;;;;;;6.95;64.90;94987.47;5005599;28;20096;-63
2022/01/08 08:40:57;;;;;;;6.35;3.63;;;;;;;7.02;65.15;94987.13;5006475;28;20030;-69
2022/01/08 08:43:23;;;;;;;7.40;3.45;;;;;;;7.11;64.34;94977.25;5005196;28;20779;-59
2022/01/08 08:45:50;;;;;;;6.43;3.45;;;;;;;7.36;64.27;94988.84;5002301;28;20525;-63
2022/01/08 08:48:16;;;;;;;5.22;3.00;;;;;;;7.68;62.51;94981.22;5004985;28;20508;-63
2022/01/08 08:50:43;;;;;;;6.43;2.92;;;;;;;7.70;62.42;94987.09;5005758;28;20088;-61
2022/01/08 08:53:09;;;;;;;7.57;3.40;;;;;;;7.82;62.31;94977.94;5004645;28;20133;-67
2022/01/08 08:55:34;;;;;;;5.63;3.17;;;;;;;7.85;61.70;94967.50;5005532;28;20038;-68
2022/01/08 08:58:00;;;;;;;5.90;3.78;;;;;;;7.64;61.61;94942.06;5005182;28;20054;-62
2022/01/08 09:00:26;;;;;;;6.28;3.50;;;;;;;7.91;61.25;94962.88;5004884;28;20497;-61
2022/01/08 09:02:51;;;;;;;6.40;3.35;;;;;;;7.51;60.86;94879.44;5005720;28;20473;-60
2022/01/08 09:05:17;;;;;;;5.43;2.88;;;;;;;8.09;60.39;94962.81;5004348;28;20073;-63
2022/01/08 09:07:43;;;;;;;6.70;3.40;;;;;;;8.17;60.60;94952.13;5003422;28;20060;-66
2022/01/08 09:10:09;;;;;;;6.57;3.97;;;;;;;8.19;60.67;94956.25;5002125;28;20041;-60
2022/01/08 09:12:39;;;;;;;6.95;3.65;;;;;;;8.25;60.61;94947.38;5005719;28;20036;-62
2022/01/08 09:15:07;;;;;;;5.38;3.28;;;;;;;8.31;60.15;94935.94;5005697;28;20482;-60
2022/01/08 09:17:34;;;;;;;10.40;4.63;;;;;;;8.34;59.97;94921.16;5006466;28;20528;-66
2022/01/08 09:20:00;;;;;;;9.27;4.50;;;;;;;8.25;59.21;94909.69;5004401;28;20034;-69
2022/01/08 09:22:26;;;;;;;6.55;3.10;;;;;;;8.42;59.43;94931.03;5003185;28;20025;-62
2022/01/08 09:24:54;;;;;;;8.57;5.18;;;;;;;8.52;59.58;94941.66;5007010;28;20102;-68
2022/01/08 09:27:19;;;;;;;7.55;4.35;;;;;;;8.58;59.80;94937.00;5039252;28;20054;-69
2022/01/08 09:29:45;;;;;;;8.02;4.70;;;;;;;8.48;58.99;94909.31;5007364;28;20073;-67
2022/01/08 09:32:10;;;;;;;5.68;3.58;;;;;;;8.53;59.44;94920.19;5007914;28;20488;-70
2022/01/08 09:34:36;;;;;;;6.47;4.03;;;;;;;8.53;59.32;94909.91;5006839;28;20107;-71
2022/01/08 09:37:04;;;;;;;6.70;4.20;;;;;;;8.44;59.81;94900.97;5007313;28;20026;-67
2022/01/08 09:39:30;;;;;;;7.10;3.53;;;;;;;8.44;59.16;94911.25;5006999;28;20060;-61
2022/01/08 09:41:55;;;;;;;6.88;3.38;;;;;;;8.35;60.17;94896.31;5006033;28;20045;-66
2022/01/08 09:44:23;;;;;;;5.38;2.88;;;;;;;8.46;59.92;94919.69;5007231;28;20018;-64
2022/01/08 09:46:48;;;;;;;5.07;3.17;;;;;;;8.53;59.78;94910.72;5008570;28;20030;-60
2022/01/08 09:49:14;;;;;;;5.10;3.28;;;;;;;8.42;59.70;94910.47;5002952;28;20558;-66
2022/01/08 09:51:39;;;;;;;5.32;3.25;;;;;;;8.45;59.64;94900.88;5011023;28;20037;-69
2022/01/08 09:54:05;;;;;;;7.95;3.10;;;;;;;8.29;60.14;94893.16;5010821;28;20401;-69
2022/01/08 09:56:32;;;;;;;6.03;3.78;;;;;;;8.31;60.08;94900.78;5009480;28;20485;-64
2022/01/08 09:58:59;;;;;;;5.88;3.45;;;;;;;8.32;60.19;94891.34;5010899;28;20038;-66
2022/01/08 10:01:28;;;;;;;5.85;3.75;;;;;;;8.56;59.92;94897.72;5011189;28;20125;-66
2022/01/08 10:03:54;;;;;;;6.32;3.55;;;;;;;8.61;59.60;94900.03;5010765;28;20048;-60
2022/01/08 10:06:22;;;;;;;4.35;3.30;;;;;;;8.54;59.37;94896.13;5010163;28;20080;-61
2022/01/08 10:08:49;;;;;;;6.97;3.70;;;;;;;8.46;59.07;94852.88;5010619;28;20030;-62
2022/01/08 10:11:14;;;;;;;6.03;3.33;;;;;;;8.48;58.73;94861.34;5010567;28;20033;-70
2022/01/08 10:13:41;;;;;;;6.22;3.13;;;;;;;8.38;59.40;94855.00;5009993;28;20036;-69
2022/01/08 10:19:15;;;;;;;6.18;3.67;;;;;;;8.53;59.03;94879.88;5010816;28;20064;-62
2022/01/08 10:21:43;;;;;;;5.68;2.80;;;;;;;8.49;59.44;94880.16;5010195;28;20416;-64
2022/01/08 10:24:10;;;;;;;8.07;3.15;;;;;;;8.41;59.27;94870.25;5010617;28;20030;-66
2022/01/08 10:26:38;;;;;;;6.70;2.90;;;;;;;8.34;59.67;94874.94;5010399;28;20026;-60
2022/01/08 10:29:06;;;;;;;5.32;3.10;;;;;;;8.15;60.90;94870.00;5010493;28;20461;-63
2022/01/08 10:31:35;;;;;;;4.32;3.08;;;;;;;8.22;60.81;94863.59;5009978;28;20145;-66
2022/01/08 10:34:00;;;;;;;5.32;2.95;;;;;;;8.27;60.12;94873.63;5010781;28;20505;-63
2022/01/08 10:36:32;;;;;;;5.18;3.20;;;;;;;8.25;59.74;94850.59;5010408;28;20036;-66
2022/01/08 10:39:00;;;;;;;5.13;3.63;;;;;;;8.38;59.29;94858.44;5010410;28;20041;-69
2022/01/08 10:41:28;;;;;;;5.03;3.72;;;;;;;8.21;60.10;94843.13;5009922;28;20505;-67
2022/01/08 10:44:10;;;;;;;6.00;3.40;;;;;;;8.20;60.08;94847.47;5008729;28;20353;-66
2022/01/08 10:46:36;;;;;;;;;;;;;;;8.36;60.16;94844.84;5010165;28;20105;-61
2022/01/08 10:49:01;;;;;;;5.60;3.75;;;;;;;8.44;58.69;94814.44;5009736;28;20083;-58
2022/01/08 10:51:34;;;;;;;7.18;3.85;;;;;;;8.55;60.01;94818.94;5010041;28;20044;-62
2022/01/08 10:54:03;;;;;;;5.63;3.63;;;;;;;8.80;58.48;94836.31;5002359;28;20030;-62
2022/01/08 10:56:46;;;;;;;5.65;3.22;;;;;;;8.89;58.09;94831.56;5005377;28;20413;-59
2022/01/08 10:59:15;;;;;;;6.88;4.25;;;;;;;8.84;57.94;94816.41;5004490;28;20033;-61
2022/01/08 11:01:43;;;;;;;7.07;3.65;;;;;;;8.99;57.91;94814.69;5007116;28;20124;-61
2022/01/08 11:04:12;;;;;;;7.20;3.08;;;;;;;9.04;57.26;94816.97;5007892;28;20486;-60
2022/01/08 11:07:26;;;;;;;5.05;3.22;;;;;;;9.01;57.75;94823.94;5004830;28;20111;-61
2022/01/08 11:09:54;;;;;;;7.65;4.25;;;;;;;8.98;57.40;94810.44;4983080;28;20101;-62
2022/01/08 11:12:31;;;;;;;5.45;3.15;;;;;;;8.87;56.75;94793.09;4967676;28;20057;-58
2022/01/08 11:15:23;;;;;;;5.25;3.65;;;;;;;8.85;57.36;94789.75;5004387;28;20058;-60
2022/01/08 11:17:55;;;;;;;20.23;5.83;;;;;;;8.66;57.56;94769.50;4983276;28;20034;-61
2022/01/08 11:20:24;;;;;;;7.05;3.53;;;;;;;8.86;57.93;94798.34;4985029;28;20401;-69
2022/01/08 11:22:56;;;;;;;6.68;4.30;;;;;;;9.19;56.96;94800.59;4983365;28;20108;-61
2022/01/08 11:25:25;;;;;;;7.55;4.28;;;;;;;9.57;56.16;94810.28;4984529;28;20034;-61
2022/01/08 11:28:13;;;;;;;6.75;3.90;;;;;;;9.18;55.63;94771.47;4984129;28;20042;-63
2022/01/08 11:30:47;;;;;;;6.68;3.95;;;;;;;9.15;56.96;94810.25;4992607;28;20494;-61
2022/01/08 11:33:19;;;;;;;6.72;3.78;;;;;;;8.92;57.06;94805.66;5004039;28;20136;-59
2022/01/08 11:35:47;;;;;;;6.78;3.88;;;;;;;8.76;57.87;94809.16;5003870;28;20038;-60
2022/01/08 11:38:16;;;;;;;5.82;3.63;;;;;;;8.63;58.17;94773.06;4989440;28;20096;-63
2022/01/08 11:40:44;;;;;;;6.25;3.70;;;;;;;9.36;56.52;94804.69;4985070;28;20524;-59
2022/01/08 11:43:12;;;;;;;6.25;3.83;;;;;;;9.88;55.79;94790.31;4983480;28;20038;-61
2022/01/08 11:45:59;;;;;;;5.25;3.72;;;;;;;9.83;54.45;94789.78;4992602;28;20539;-61
2022/01/08 11:48:30;;;;;;;7.47;4.22;;;;;;;9.95;53.63;94770.97;5007033;28;20030;-60
2022/01/08 11:50:58;;;;;;;6.45;4.18;;;;;;;10.23;53.34;94779.47;5007190;28;20026;-63
2022/01/08 11:53:29;;;;;;;9.55;6.18;;;;;;;10.19;54.03;94775.47;5006166;28;20562;-69
2022/01/08 11:56:05;;;;;;;7.15;4.38;;;;;;;10.10;52.72;94733.91;5007076;28;20400;-62
2022/01/08 11:58:33;;;;;;;5.80;4.05;;;;;;;10.48;53.02;94756.34;5006712;28;20038;-70
2022/01/08 12:01:12;;;;;;;6.22;3.95;;;;;;;10.04;53.62;94764.41;5006684;28;20069;-61
2022/01/08 12:03:49;;;;;;;6.22;4.07;;;;;;;10.01;53.88;94775.72;5006865;28;20017;-64
2022/01/08 12:06:21;;;;;;;7.95;4.72;;;;;;;9.94;54.81;94770.16;5006546;28;20029;-60
2022/01/08 12:09:21;;;;;;;5.97;4.20;;;;;;;10.05;53.88;94776.34;5005624;28;20141;-59